createdAt,value
2023-02-04T00:01:44.390Z,99.13
2023-02-04T00:04:12.972Z,99.29
2023-02-04T00:06:41.061Z,99.48
2023-02-04T00:09:09.163Z,99.75
2023-02-04T00:11:37.676Z,100.00
2023-02-04T00:14:06.003Z,100.00
2023-02-04T00:16:34.180Z,100.00
2023-02-04T00:19:02.711Z,100.00
2023-02-04T00:21:31.644Z,100.00
2023-02-04T00:24:00.354Z,100.00
2023-02-04T00:26:28.764Z,100.00
2023-02-04T00:28:56.844Z,100.00
2023-02-04T00:31:25.638Z,100.00
2023-02-04T00:33:53.837Z,100.00
2023-02-04T00:36:22.013Z,100.00
2023-02-04T00:38:50.269Z,100.00
2023-02-04T00:41:18.461Z,100.00
2023-02-04T00:43:47.608Z,100.00
2023-02-04T00:46:15.749Z,99.82
2023-02-04T00:48:43.931Z,99.84
2023-02-04T00:51:12.126Z,99.55
2023-02-04T00:53:40.817Z,99.20
2023-02-04T00:56:08.942Z,98.96
2023-02-04T00:58:38.326Z,98.49
2023-02-04T01:01:07.124Z,98.66
2023-02-04T01:03:35.243Z,99.24
2023-02-04T01:06:03.445Z,99.43
2023-02-04T01:08:32.433Z,99.36
2023-02-04T01:11:00.849Z,99.25
2023-02-04T01:13:29.343Z,99.37
2023-02-04T01:15:57.835Z,99.71
2023-02-04T01:18:26.109Z,99.32
2023-02-04T01:20:54.205Z,99.48
2023-02-04T01:23:22.666Z,99.23
2023-02-04T01:25:51.097Z,99.43
2023-02-04T01:28:19.445Z,99.70
2023-02-04T01:30:47.575Z,99.88
2023-02-04T01:33:15.718Z,99.93
2023-02-04T01:35:44.039Z,99.71
2023-02-04T01:38:12.820Z,99.62
2023-02-04T01:40:41.670Z,99.85
2023-02-04T01:43:10.646Z,99.20
2023-02-04T01:45:39.640Z,99.53
2023-02-04T01:48:08.146Z,99.62
2023-02-04T01:50:39.001Z,99.78
2023-02-04T01:53:07.565Z,99.57
2023-02-04T01:55:36.078Z,99.36
2023-02-04T01:58:04.332Z,98.87
2023-02-04T02:00:33.552Z,98.00
2023-02-04T02:03:03.890Z,97.84
2023-02-04T02:05:38.625Z,98.47
2023-02-04T02:08:06.829Z,98.37
2023-02-04T02:10:35.484Z,98.66
2023-02-04T02:13:05.700Z,98.28
2023-02-04T02:15:34.965Z,98.55
2023-02-04T02:18:03.644Z,98.90
2023-02-04T02:20:32.208Z,99.55
2023-02-04T02:23:24.942Z,99.28
2023-02-04T02:25:53.171Z,98.92
2023-02-04T02:28:22.249Z,98.97
2023-02-04T02:30:50.707Z,98.87
2023-02-04T02:33:20.041Z,98.75
2023-02-04T02:35:51.188Z,98.48
2023-02-04T02:38:19.810Z,98.70
2023-02-04T02:40:48.352Z,98.10
2023-02-04T02:43:18.093Z,97.73
2023-02-04T02:45:46.351Z,97.58
2023-02-04T02:48:14.492Z,97.70
2023-02-04T02:50:42.705Z,98.86
2023-02-04T02:53:16.600Z,99.17
2023-02-04T02:55:45.520Z,99.79
2023-02-04T02:58:26.555Z,99.26
2023-02-04T03:00:55.061Z,99.21
2023-02-04T03:03:31.548Z,98.28
2023-02-04T03:06:21.229Z,98.35
2023-02-04T03:08:51.374Z,98.08
2023-02-04T03:11:22.465Z,98.23
2023-02-04T03:13:50.563Z,98.02
2023-02-04T03:16:19.091Z,97.55
2023-02-04T03:18:47.326Z,98.07
2023-02-04T03:21:15.744Z,97.93
2023-02-04T03:23:43.822Z,97.82
2023-02-04T03:26:12.026Z,97.66
2023-02-04T03:28:42.088Z,96.91
2023-02-04T03:31:10.895Z,97.45
2023-02-04T03:33:39.389Z,97.57
2023-02-04T03:36:10.079Z,97.16
2023-02-04T03:38:38.199Z,96.98
2023-02-04T03:41:06.435Z,96.73
2023-02-04T03:43:35.273Z,96.55
2023-02-04T03:46:03.434Z,96.72
2023-02-04T03:48:32.201Z,96.83
2023-02-04T03:51:00.327Z,97.04
2023-02-04T03:53:28.995Z,96.80
2023-02-04T03:55:57.095Z,97.21
2023-02-04T03:58:25.674Z,97.48
2023-02-04T04:00:53.724Z,97.21
2023-02-04T04:03:21.899Z,97.17
2023-02-04T04:05:50.306Z,97.61
2023-02-04T04:08:18.521Z,97.42
2023-02-04T04:10:47.298Z,97.00
2023-02-04T04:13:16.317Z,97.19
2023-02-04T04:15:45.451Z,97.41
2023-02-04T04:18:13.682Z,97.96
2023-02-04T04:20:42.123Z,97.77
2023-02-04T04:23:10.668Z,97.11
2023-02-04T04:25:38.904Z,96.50
2023-02-04T04:28:07.705Z,96.44
2023-02-04T04:30:36.187Z,96.27
2023-02-04T04:33:04.480Z,95.83
2023-02-04T04:35:33.508Z,95.80
2023-02-04T04:38:02.763Z,95.63
2023-02-04T04:40:32.514Z,95.76
2023-02-04T04:43:01.419Z,96.20
2023-02-04T04:45:30.032Z,96.67
2023-02-04T04:47:58.241Z,96.97
2023-02-04T04:50:26.442Z,96.72
2023-02-04T04:52:54.756Z,96.81
2023-02-04T04:55:22.840Z,97.10
2023-02-04T04:57:51.578Z,96.49
2023-02-04T05:00:20.687Z,96.09
2023-02-04T05:02:48.806Z,96.11
2023-02-04T05:05:17.105Z,95.88
2023-02-04T05:07:45.534Z,96.06
2023-02-04T05:10:13.610Z,95.87
2023-02-04T05:12:42.424Z,96.02
2023-02-04T05:15:11.700Z,95.98
2023-02-04T05:17:40.527Z,95.77
2023-02-04T05:20:09.908Z,95.60
2023-02-04T05:22:38.778Z,96.09
2023-02-04T05:25:07.611Z,95.88
2023-02-04T05:27:36.316Z,96.02
2023-02-04T05:30:05.506Z,96.05
2023-02-04T05:32:36.854Z,96.04
2023-02-04T05:35:05.723Z,96.01
2023-02-04T05:37:34.336Z,96.23
2023-02-04T05:40:02.824Z,95.57
2023-02-04T05:42:31.540Z,95.76
2023-02-04T05:45:00.257Z,95.41
2023-02-04T05:47:28.523Z,95.63
2023-02-04T05:49:57.131Z,95.61
2023-02-04T05:52:25.248Z,95.42
2023-02-04T05:54:53.806Z,95.35
2023-02-04T05:57:21.967Z,95.05
2023-02-04T05:59:50.130Z,95.74
2023-02-04T06:02:18.872Z,95.24
2023-02-04T06:04:47.265Z,95.59
2023-02-04T06:07:15.474Z,95.44
2023-02-04T06:09:43.687Z,95.55
2023-02-04T06:12:11.963Z,95.41
2023-02-04T06:14:41.951Z,95.47
2023-02-04T06:17:10.799Z,95.40
2023-02-04T06:22:47.875Z,95.61
2023-02-04T06:25:18.630Z,96.00
2023-02-04T06:27:47.770Z,95.91
2023-02-04T06:30:17.344Z,95.54
2023-02-04T06:32:46.909Z,95.48
2023-02-04T06:35:18.552Z,95.31
2023-02-04T06:37:47.788Z,95.43
2023-02-04T06:40:17.183Z,95.17
2023-02-04T06:42:47.056Z,95.29
2023-02-04T06:45:16.388Z,95.09
2023-02-04T06:47:46.039Z,95.51
2023-02-04T06:50:19.117Z,95.60
2023-02-04T06:52:47.960Z,95.44
2023-02-04T06:55:19.762Z,95.35
2023-02-04T06:57:48.746Z,95.25
2023-02-04T07:00:17.825Z,95.24
2023-02-04T07:02:46.983Z,94.67
2023-02-04T07:05:19.997Z,95.22
2023-02-04T07:07:53.329Z,95.11
2023-02-04T07:10:21.812Z,95.06
2023-02-04T07:13:09.762Z,94.95
2023-02-04T07:15:38.052Z,94.57
2023-02-04T07:18:06.549Z,94.79
2023-02-04T07:20:35.020Z,94.45
2023-02-04T07:23:04.078Z,94.59
2023-02-04T07:25:32.125Z,94.58
2023-02-04T07:28:02.042Z,94.62
2023-02-04T07:30:32.243Z,94.88
2023-02-04T07:33:00.671Z,94.43
2023-02-04T07:35:28.855Z,94.43
2023-02-04T07:37:57.040Z,94.83
2023-02-04T07:40:25.150Z,94.85
2023-02-04T07:42:53.280Z,94.42
2023-02-04T07:45:23.073Z,93.47
2023-02-04T07:47:51.451Z,93.58
2023-02-04T07:50:22.918Z,93.58
2023-02-04T07:52:52.031Z,94.09
2023-02-04T07:55:20.111Z,93.79
2023-02-04T08:00:30.770Z,93.15
2023-02-04T08:02:59.149Z,93.09
2023-02-04T08:05:28.145Z,93.25
2023-02-04T08:07:56.372Z,93.28
2023-02-04T08:10:28.924Z,93.32
2023-02-04T08:12:58.120Z,93.15
2023-02-04T08:15:26.230Z,93.37
2023-02-04T08:17:54.430Z,93.20
2023-02-04T08:20:22.565Z,93.49
2023-02-04T08:22:50.633Z,93.23
2023-02-04T08:25:18.942Z,92.90
2023-02-04T08:27:48.382Z,92.70
2023-02-04T08:30:16.752Z,92.78
2023-02-04T08:32:44.898Z,93.29
2023-02-04T08:35:13.451Z,93.32
2023-02-04T08:37:41.962Z,93.65
2023-02-04T08:40:11.037Z,94.00
2023-02-04T08:42:39.333Z,93.69
2023-02-04T08:45:08.160Z,93.79
2023-02-04T08:47:37.750Z,93.47
2023-02-04T08:50:06.366Z,93.42
2023-02-04T08:52:34.503Z,93.22
2023-02-04T08:55:03.576Z,93.02
2023-02-04T08:57:32.306Z,93.17
2023-02-04T09:00:01.080Z,93.23
2023-02-04T09:02:31.394Z,92.48
2023-02-04T09:05:02.728Z,92.61
2023-02-04T09:07:30.943Z,91.36
2023-02-04T09:09:59.695Z,89.26
2023-02-04T09:12:28.150Z,88.59
2023-02-04T09:14:59.102Z,88.24
2023-02-04T09:17:35.908Z,86.85
2023-02-04T09:20:06.175Z,87.16
2023-02-04T09:22:37.426Z,87.70
2023-02-04T09:25:06.023Z,87.12
2023-02-04T09:27:37.126Z,87.43
2023-02-04T09:30:05.552Z,87.52
2023-02-04T09:32:34.305Z,88.35
2023-02-04T09:35:04.843Z,88.38
2023-02-04T09:37:33.324Z,88.32
2023-02-04T09:40:01.438Z,88.93
2023-02-04T09:42:32.613Z,88.63
2023-02-04T09:45:03.218Z,88.24
2023-02-04T09:47:32.390Z,87.67
2023-02-04T09:50:00.709Z,88.20
2023-02-04T09:52:29.880Z,88.96
2023-02-04T09:54:58.110Z,88.36
2023-02-04T09:57:27.622Z,88.36
2023-02-04T09:59:56.007Z,88.41
2023-02-04T10:02:25.597Z,87.76
2023-02-04T10:04:57.764Z,88.23
2023-02-04T10:07:27.544Z,88.72
2023-02-04T10:09:56.037Z,88.65
2023-02-04T10:12:27.418Z,89.07
2023-02-04T10:14:55.519Z,88.79
2023-02-04T10:17:23.637Z,88.29
2023-02-04T10:19:51.753Z,88.84
2023-02-04T10:22:21.112Z,89.00
2023-02-04T10:24:49.496Z,88.92
2023-02-04T10:27:18.469Z,88.42
2023-02-04T10:29:59.012Z,88.67
2023-02-04T10:32:31.878Z,89.26
2023-02-04T10:35:01.847Z,88.64
2023-02-04T10:37:32.210Z,88.25
2023-02-04T10:40:00.418Z,88.17
2023-02-04T10:42:30.157Z,88.97
2023-02-04T10:44:59.067Z,88.64
2023-02-04T10:47:31.430Z,88.90
2023-02-04T10:50:08.562Z,89.19
2023-02-04T10:52:42.072Z,89.18
2023-02-04T10:55:20.908Z,89.43
2023-02-04T10:57:50.105Z,89.55
2023-02-04T11:00:20.513Z,89.63
2023-02-04T11:03:04.297Z,90.39
2023-02-04T11:05:33.795Z,90.73
2023-02-04T11:08:02.749Z,90.48
2023-02-04T11:10:33.522Z,90.48
2023-02-04T11:13:04.727Z,90.56
2023-02-04T11:15:50.222Z,90.66
2023-02-04T11:18:22.222Z,91.23
2023-02-04T11:20:51.958Z,91.00
2023-02-04T11:23:26.043Z,91.45
2023-02-04T11:26:13.588Z,90.91
2023-02-04T11:29:01.212Z,90.57
2023-02-04T11:31:33.902Z,90.77
2023-02-04T11:34:10.373Z,90.92
2023-02-04T11:36:55.121Z,90.59
2023-02-04T11:39:37.863Z,88.93
2023-02-04T11:42:06.605Z,90.13
2023-02-04T11:44:35.725Z,90.58
2023-02-04T11:47:03.962Z,90.14
2023-02-04T11:49:32.153Z,89.49
2023-02-04T11:52:10.435Z,91.06
2023-02-04T11:54:39.593Z,91.30
2023-02-04T11:57:11.954Z,91.13
2023-02-04T11:59:42.364Z,91.02
2023-02-04T12:02:20.104Z,91.36
2023-02-04T12:05:19.129Z,91.86
2023-02-04T12:07:48.213Z,91.63
2023-02-04T12:10:25.682Z,91.57
2023-02-04T12:12:57.799Z,91.55
2023-02-04T12:15:38.062Z,91.10
2023-02-04T12:18:08.368Z,91.26
2023-02-04T12:20:37.174Z,91.08
2023-02-04T12:23:05.805Z,91.29
2023-02-04T12:25:34.493Z,91.48
2023-02-04T12:28:02.965Z,90.99
2023-02-04T12:30:31.101Z,91.26
2023-02-04T12:32:59.553Z,91.44
2023-02-04T12:35:27.691Z,91.75
2023-02-04T12:37:56.670Z,91.50
2023-02-04T12:40:24.791Z,91.55
2023-02-04T12:42:53.246Z,91.61
2023-02-04T12:45:21.376Z,91.92
2023-02-04T12:47:49.896Z,91.78
2023-02-04T12:50:22.710Z,91.37
2023-02-04T12:52:52.332Z,90.49
2023-02-04T12:55:24.149Z,90.51
2023-02-04T12:57:52.587Z,89.89
2023-02-04T13:00:21.885Z,87.87
2023-02-04T13:02:50.191Z,88.27
2023-02-04T13:05:18.693Z,87.78
2023-02-04T13:07:46.884Z,87.77
2023-02-04T13:10:20.345Z,86.50
2023-02-04T13:12:51.377Z,86.58
2023-02-04T13:15:20.380Z,86.07
2023-02-04T13:17:48.675Z,85.42
2023-02-04T13:20:18.338Z,83.39
2023-02-04T13:22:46.597Z,80.20
2023-02-04T13:25:14.880Z,77.43
2023-02-04T13:27:43.372Z,76.22
2023-02-04T13:30:15.386Z,75.69
2023-02-04T13:32:44.131Z,76.04
2023-02-04T13:35:12.294Z,75.55
2023-02-04T13:37:40.551Z,75.96
2023-02-04T15:52:34.630Z,79.46
2023-02-04T15:55:01.355Z,79.53
2023-02-04T15:57:28.148Z,79.42
2023-02-04T15:59:55.092Z,79.02
2023-02-04T16:02:22.104Z,77.95
2023-02-04T16:04:49.743Z,77.51
2023-02-04T16:07:16.467Z,77.73
2023-02-04T16:09:46.448Z,78.01
2023-02-04T16:12:13.553Z,78.16
2023-02-04T16:14:40.728Z,78.62
2023-02-04T16:17:10.753Z,78.41
2023-02-04T16:19:37.612Z,78.79
2023-02-04T16:22:05.863Z,78.29
2023-02-04T16:24:33.775Z,78.33
2023-02-04T16:27:00.680Z,78.14
2023-02-04T16:29:27.973Z,78.43
2023-02-04T16:31:56.468Z,78.74
2023-02-04T16:34:26.505Z,78.51
2023-02-04T16:36:53.393Z,78.45
2023-02-04T16:39:20.202Z,78.44
2023-02-04T16:41:47.084Z,78.74
2023-02-04T16:44:14.097Z,78.95
2023-02-04T16:46:41.004Z,79.34
2023-02-04T16:49:08.916Z,79.06
2023-02-04T16:51:36.952Z,79.14
2023-02-04T16:54:03.956Z,79.46
2023-02-04T16:56:34.917Z,79.55
2023-02-04T16:59:02.080Z,78.90
2023-02-04T17:01:28.961Z,79.13
2023-02-04T17:03:57.803Z,78.87
2023-02-04T17:06:25.848Z,78.74
2023-02-04T17:08:52.676Z,78.01
2023-02-04T17:11:29.095Z,78.05
2023-02-04T17:14:03.200Z,78.16
2023-02-04T17:16:30.684Z,77.86
2023-02-04T17:18:57.911Z,77.66
2023-02-04T17:21:27.646Z,77.96
2023-02-04T17:24:02.323Z,78.34
2023-02-04T17:26:29.815Z,77.40
2023-02-04T17:28:56.597Z,78.04
2023-02-04T17:31:23.814Z,78.01
2023-02-04T17:33:50.544Z,77.04
2023-02-04T17:36:17.256Z,76.43
2023-02-04T17:38:44.051Z,76.90
2023-02-04T17:41:10.784Z,76.97
2023-02-04T17:43:38.111Z,77.12
2023-02-04T17:46:05.032Z,77.55
2023-02-04T17:48:33.267Z,77.55
2023-02-04T17:51:00.001Z,77.90
2023-02-04T17:53:26.729Z,77.79
2023-02-04T17:55:53.411Z,78.29
2023-02-04T17:58:25.055Z,78.32
2023-02-04T18:00:53.022Z,78.58
2023-02-04T18:03:22.933Z,78.99
2023-02-04T18:05:51.326Z,78.63
2023-02-04T18:08:26.691Z,78.77
2023-02-04T18:10:55.621Z,78.67
2023-02-04T18:13:29.276Z,78.80
2023-02-04T18:15:58.341Z,78.86
2023-02-04T18:18:35.348Z,78.76
2023-02-04T18:21:11.500Z,78.63
2023-02-04T18:23:38.201Z,78.82
2023-02-04T18:26:17.071Z,79.09
2023-02-04T18:28:45.897Z,78.61
2023-02-04T18:31:33.626Z,78.70
2023-02-04T18:34:01.800Z,79.07
2023-02-04T18:36:29.145Z,78.70
2023-02-04T18:38:56.270Z,78.98
2023-02-04T18:41:27.176Z,78.71
2023-02-04T18:44:01.610Z,78.58
2023-02-04T18:46:32.467Z,78.62
2023-02-04T18:49:02.206Z,79.30
2023-02-04T18:51:34.258Z,78.96
2023-02-04T18:54:22.038Z,78.78
2023-02-04T18:56:49.071Z,78.99
2023-02-04T18:59:17.037Z,79.45
2023-02-04T19:01:45.479Z,79.26
2023-02-04T19:04:21.113Z,79.22
2023-02-04T19:06:49.371Z,79.30
2023-02-04T19:09:32.098Z,79.21
2023-02-04T19:12:00.152Z,79.61
2023-02-04T19:14:38.484Z,79.68
2023-02-04T19:17:22.150Z,79.95
2023-02-04T19:19:59.841Z,79.42
2023-02-04T19:22:36.987Z,79.24
2023-02-04T19:25:23.002Z,79.23
2023-02-04T19:27:51.558Z,79.59
2023-02-04T19:30:41.533Z,79.72
2023-02-04T19:33:31.833Z,80.37
2023-02-04T19:36:01.416Z,80.22
2023-02-04T19:38:32.993Z,80.15
2023-02-04T19:40:59.795Z,80.24
2023-02-04T19:43:37.072Z,80.39
2023-02-04T19:46:21.204Z,80.64
2023-02-04T19:48:48.575Z,81.07
2023-02-04T19:51:19.752Z,81.31
2023-02-04T19:53:50.961Z,81.16
2023-02-04T19:56:38.022Z,81.47
2023-02-04T19:59:23.846Z,82.06
2023-02-04T20:02:06.741Z,82.17
2023-02-04T20:04:37.077Z,82.51
2023-02-04T20:07:19.150Z,82.96
2023-02-04T20:09:46.396Z,82.97
2023-02-04T20:12:18.793Z,82.81
2023-02-04T20:14:52.900Z,82.94
2023-02-04T20:17:40.725Z,83.17
2023-02-04T20:20:17.042Z,83.64
2023-02-04T20:22:56.725Z,83.73
2023-02-04T20:25:34.276Z,83.81
2023-02-04T20:28:10.374Z,84.08
2023-02-04T20:30:37.247Z,84.26
2023-02-04T20:33:53.279Z,84.35
2023-02-04T20:36:26.135Z,84.56
2023-02-04T20:39:15.088Z,84.79
2023-02-04T20:41:42.062Z,84.79
2023-02-04T20:44:12.581Z,84.83
2023-02-04T20:46:39.672Z,84.87
2023-02-04T20:49:25.179Z,85.01
2023-02-04T20:51:58.684Z,85.43
2023-02-04T20:54:27.261Z,85.42
2023-02-04T20:56:54.280Z,85.80
2023-02-04T20:59:29.633Z,85.99
2023-02-04T21:01:56.546Z,86.36
2023-02-04T21:04:38.006Z,86.62
2023-02-04T21:07:18.283Z,86.80
2023-02-04T21:09:47.660Z,86.85
2023-02-04T21:12:15.552Z,87.15
2023-02-04T21:14:42.656Z,87.34
2023-02-04T21:17:09.393Z,87.37
2023-02-04T21:19:36.347Z,87.37
2023-02-04T21:22:03.276Z,87.35
2023-02-04T21:24:31.286Z,87.37
2023-02-04T21:26:58.526Z,87.44
2023-02-04T21:29:25.769Z,87.77
2023-02-04T21:31:53.942Z,87.76
2023-02-04T21:34:20.933Z,87.90
2023-02-04T21:36:47.977Z,87.98
2023-02-04T21:39:14.989Z,88.28
2023-02-04T21:41:41.807Z,88.32
2023-02-04T21:44:08.726Z,88.26
2023-02-04T21:46:37.090Z,88.41
2023-02-04T21:49:04.872Z,88.20
2023-02-04T21:51:34.397Z,88.50
2023-02-04T21:54:04.655Z,88.66
2023-02-04T21:56:31.451Z,88.61
2023-02-04T21:58:58.430Z,88.95
2023-02-04T22:01:25.124Z,89.02
2023-02-04T22:03:52.461Z,89.43
2023-02-04T22:06:19.181Z,89.57
2023-02-04T22:11:48.832Z,89.90
2023-02-04T22:14:19.359Z,89.74
2023-02-04T22:16:47.939Z,89.83
2023-02-04T22:19:16.020Z,89.60
2023-02-04T22:21:44.425Z,89.95
2023-02-04T22:24:12.631Z,90.24
2023-02-04T22:26:40.792Z,90.21
2023-02-04T22:29:08.857Z,90.53
2023-02-04T22:31:37.573Z,90.80
2023-02-04T22:34:05.983Z,90.60
2023-02-04T22:36:34.523Z,90.89
2023-02-04T22:39:02.688Z,91.15
2023-02-04T22:41:31.247Z,91.14
2023-02-04T22:43:59.850Z,91.41
2023-02-04T22:46:29.882Z,91.24
2023-02-04T22:48:58.102Z,91.18
2023-02-04T22:51:26.208Z,91.44
2023-02-04T22:53:55.051Z,91.51
2023-02-04T22:56:23.215Z,91.63
2023-02-04T22:58:52.904Z,92.04
2023-02-04T23:01:21.229Z,91.96
2023-02-04T23:03:49.613Z,92.32
2023-02-04T23:06:17.848Z,92.42
2023-02-04T23:08:46.702Z,92.13
2023-02-04T23:11:18.718Z,92.39
2023-02-04T23:13:46.751Z,92.23
2023-02-04T23:16:15.022Z,92.23
2023-02-04T23:18:43.526Z,92.09
2023-02-04T23:21:13.254Z,92.41
2023-02-04T23:23:41.945Z,92.09
2023-02-04T23:26:10.612Z,92.14
2023-02-04T23:28:38.706Z,92.42
2023-02-04T23:31:06.763Z,92.50
2023-02-04T23:33:35.257Z,92.34
2023-02-04T23:36:03.930Z,92.76
2023-02-04T23:38:32.367Z,92.31
2023-02-04T23:41:00.557Z,92.51
2023-02-04T23:43:29.255Z,92.28
2023-02-04T23:46:00.305Z,92.49
2023-02-04T23:48:28.739Z,92.46
2023-02-04T23:50:59.733Z,92.75
2023-02-04T23:53:27.977Z,92.76
2023-02-04T23:55:56.471Z,92.94
2023-02-04T23:58:24.605Z,92.71
